Terminal Aerodrome Forecast
Issued by NWS

Home | Current Version | Previous Version | Text Only | Print | Product List | Glossary On
Versions: 1 2 3 4 5 6 7 8 9 10 11 12 13 14 15 16 17 18 19 20 21 22 23 24 25 26 27 28 29 30 31 32 33
000
FTUS44 KOUN 222124 AAA
TAFLAW
TAF AMD
KLAW 222124Z 2221/2318 31008KT P6SM BKN130
     FM230000 VRB04KT P6SM SCT150 SCT250
     FM231100 33010KT P6SM BKN150
     FM231600 34015G20KT P6SM SCT150=

USA.gov is the U.S. government's official web portal to all federal, state and local government web resources and services.